createdAt,value
2018-06-23T00:00:22.565Z,87.46
2018-06-23T00:02:52.107Z,88.48
2018-06-23T00:05:23.711Z,88.37
2018-06-23T00:07:53.036Z,89.23
2018-06-23T00:10:24.002Z,88.27
2018-06-23T00:12:53.458Z,88.38
2018-06-23T00:15:22.997Z,88.64
2018-06-23T00:17:52.264Z,88.34
2018-06-23T00:20:21.920Z,88.28
2018-06-23T00:22:51.262Z,88.62
2018-06-23T00:25:25.763Z,88.08
2018-06-23T00:27:55.700Z,88.76
2018-06-23T00:30:25.209Z,88.71
2018-06-23T00:32:55.797Z,89.10
2018-06-23T00:35:25.405Z,89.07
2018-06-23T00:37:54.808Z,89.22
2018-06-23T00:40:24.032Z,89.34
2018-06-23T00:42:53.343Z,88.40
2018-06-23T00:45:22.652Z,89.36
2018-06-23T00:47:51.887Z,89.53
2018-06-23T00:50:21.223Z,89.34
2018-06-23T00:52:50.394Z,89.33
2018-06-23T00:55:19.456Z,89.35
2018-06-23T00:57:48.482Z,89.03
2018-06-23T01:00:17.570Z,89.31
2018-06-23T01:02:46.602Z,90.04
2018-06-23T01:05:15.645Z,89.62
2018-06-23T01:07:44.709Z,89.31
2018-06-23T01:10:13.727Z,89.30
2018-06-23T01:12:42.735Z,89.06
2018-06-23T01:15:11.982Z,89.01
2018-06-23T01:17:41.326Z,88.91
2018-06-23T01:20:10.716Z,88.87
2018-06-23T01:22:40.368Z,89.09
2018-06-23T01:25:09.892Z,88.58
2018-06-23T01:27:39.363Z,89.23
2018-06-23T01:30:08.888Z,89.31
2018-06-23T01:32:38.371Z,90.02
2018-06-23T01:35:07.629Z,89.74
2018-06-23T01:37:37.072Z,90.65
2018-06-23T01:40:06.244Z,90.41
2018-06-23T01:42:35.531Z,90.27
2018-06-23T01:45:05.084Z,90.04
2018-06-23T01:47:34.342Z,90.03
2018-06-23T01:50:03.676Z,90.62
2018-06-23T01:52:32.930Z,90.40
2018-06-23T01:55:02.246Z,90.51
2018-06-23T01:57:31.690Z,90.32
2018-06-23T02:00:01.085Z,89.26
2018-06-23T02:02:30.432Z,89.26
2018-06-23T02:04:59.728Z,88.96
2018-06-23T02:07:29.271Z,89.71
2018-06-23T02:09:59.093Z,88.86
2018-06-23T02:12:29.490Z,88.81
2018-06-23T02:15:03.823Z,89.40
2018-06-23T02:17:38.186Z,88.99
2018-06-23T02:20:12.608Z,89.03
2018-06-23T02:22:46.940Z,88.54
2018-06-23T02:25:21.503Z,89.59
2018-06-23T02:27:55.786Z,89.32
2018-06-23T02:30:35.232Z,89.70
2018-06-23T02:35:16.093Z,88.89
2018-06-23T02:37:45.493Z,90.58
2018-06-23T02:40:14.838Z,90.66
2018-06-23T02:42:44.278Z,89.57
2018-06-23T02:45:13.578Z,89.89
2018-06-23T02:47:42.887Z,90.38
2018-06-23T02:50:12.198Z,90.39
2018-06-23T02:52:41.544Z,89.74
2018-06-23T02:55:11.090Z,90.33
2018-06-23T02:57:40.624Z,90.89
2018-06-23T03:00:09.965Z,90.47
2018-06-23T03:02:39.365Z,90.46
2018-06-23T03:05:08.693Z,89.85
2018-06-23T03:07:38.098Z,92.35
2018-06-23T03:10:07.405Z,91.32
2018-06-23T03:12:36.875Z,91.27
2018-06-23T03:15:07.323Z,92.22
2018-06-23T03:17:36.603Z,91.68
2018-06-23T03:20:06.659Z,91.40
2018-06-23T03:22:36.085Z,92.16
2018-06-23T03:25:05.390Z,91.95
2018-06-23T03:27:34.736Z,91.67
2018-06-23T03:30:04.228Z,91.44
2018-06-23T03:32:33.562Z,91.54
2018-06-23T03:35:02.948Z,90.50
2018-06-23T03:37:32.385Z,91.56
2018-06-23T03:40:01.644Z,91.87
2018-06-23T03:42:30.967Z,90.67
2018-06-23T03:45:00.295Z,91.19
2018-06-23T03:47:29.511Z,91.01
2018-06-23T03:49:58.944Z,91.12
2018-06-23T03:52:28.762Z,89.87
2018-06-23T03:54:58.372Z,91.28
2018-06-23T03:57:27.763Z,90.91
2018-06-23T03:59:57.089Z,91.65
2018-06-23T04:02:26.401Z,92.73
2018-06-23T04:04:55.407Z,93.56
2018-06-23T04:07:24.384Z,93.12
2018-06-23T04:09:53.391Z,92.93
2018-06-23T04:12:22.638Z,92.66
2018-06-23T04:14:52.026Z,93.90
2018-06-23T04:17:21.458Z,92.98
2018-06-23T04:19:50.757Z,92.71
2018-06-23T04:22:20.081Z,92.29
2018-06-23T04:24:49.581Z,91.65
2018-06-23T04:27:18.889Z,91.22
2018-06-23T04:29:48.207Z,91.84
2018-06-23T04:32:17.778Z,91.74
2018-06-23T04:34:47.590Z,91.21
2018-06-23T04:37:17.300Z,91.79
2018-06-23T04:39:46.849Z,92.05
2018-06-23T04:42:16.159Z,91.38
2018-06-23T04:44:45.508Z,91.21
2018-06-23T04:47:15.131Z,90.53
2018-06-23T04:49:45.027Z,91.05
2018-06-23T04:52:14.358Z,91.27
2018-06-23T04:54:43.630Z,91.12
2018-06-23T04:57:13.244Z,90.85
2018-06-23T04:59:42.671Z,90.81
2018-06-23T05:02:12.064Z,90.78
2018-06-23T05:04:41.373Z,90.04
2018-06-23T05:07:10.656Z,90.63
2018-06-23T05:09:40.095Z,90.95
2018-06-23T05:12:09.513Z,90.21
2018-06-23T05:14:39.078Z,90.30
2018-06-23T05:17:08.493Z,91.02
2018-06-23T05:19:39.067Z,90.16
2018-06-23T05:22:08.325Z,89.34
2018-06-23T05:24:37.601Z,89.20
2018-06-23T05:27:07.045Z,89.00
2018-06-23T05:29:36.247Z,89.58
2018-06-23T05:32:05.644Z,88.36
2018-06-23T05:34:34.904Z,88.27
2018-06-23T05:37:04.238Z,89.22
2018-06-23T05:39:34.470Z,89.09
2018-06-23T05:42:03.937Z,88.86
2018-06-23T05:44:33.429Z,88.40
2018-06-23T05:47:02.984Z,88.66
2018-06-23T05:49:32.394Z,88.67
2018-06-23T05:52:01.837Z,86.10
2018-06-23T05:54:31.312Z,87.23
2018-06-23T05:57:00.585Z,86.64
2018-06-23T05:59:29.858Z,87.33
2018-06-23T06:01:59.143Z,85.58
2018-06-23T06:04:28.554Z,87.18
2018-06-23T06:06:58.087Z,81.31
2018-06-23T06:09:27.748Z,76.97
2018-06-23T06:11:58.257Z,73.30
2018-06-23T06:14:27.928Z,76.02
2018-06-23T06:17:30.772Z,75.87
2018-06-23T06:20:01.387Z,78.37
2018-06-23T06:22:33.053Z,76.25
2018-06-23T06:25:02.457Z,78.98
2018-06-23T06:27:31.817Z,82.72
2018-06-23T06:30:01.329Z,82.04
2018-06-23T06:32:30.922Z,80.17
2018-06-23T06:35:00.632Z,74.85
2018-06-23T06:37:30.564Z,73.67
2018-06-23T06:39:59.822Z,72.80
2018-06-23T06:42:29.364Z,73.54
2018-06-23T06:44:58.906Z,74.08
2018-06-23T06:47:28.187Z,71.80
2018-06-23T06:49:57.581Z,72.87
2018-06-23T06:52:26.903Z,71.73
2018-06-23T06:54:56.853Z,74.80
2018-06-23T06:57:26.532Z,79.89
2018-06-23T06:59:56.622Z,72.38
2018-06-23T07:02:26.767Z,75.55
2018-06-23T07:04:56.108Z,77.06
2018-06-23T07:07:26.123Z,75.95
2018-06-23T07:09:55.610Z,71.29
2018-06-23T07:12:24.972Z,73.85
2018-06-23T07:14:54.455Z,70.24
2018-06-23T07:17:23.766Z,67.83
2018-06-23T07:19:53.223Z,68.37
2018-06-23T07:22:22.566Z,69.02
2018-06-23T07:24:51.961Z,67.99
2018-06-23T07:27:21.462Z,67.20
2018-06-23T07:29:50.879Z,68.86
2018-06-23T07:32:20.373Z,67.51
2018-06-23T07:34:49.973Z,68.65
2018-06-23T07:37:19.200Z,68.60
2018-06-23T07:39:48.765Z,69.04
2018-06-23T07:42:18.768Z,67.86
2018-06-23T07:44:48.192Z,67.42
2018-06-23T07:47:17.624Z,67.97
2018-06-23T07:49:47.017Z,66.93
2018-06-23T07:52:16.442Z,66.82
2018-06-23T07:54:45.985Z,67.69
2018-06-23T07:57:15.355Z,66.36
2018-06-23T07:59:44.775Z,65.61
2018-06-23T08:02:14.187Z,64.39
2018-06-23T08:04:43.646Z,64.18
2018-06-23T08:07:13.080Z,65.76
2018-06-23T08:09:42.822Z,66.95
2018-06-23T08:12:12.134Z,66.33
2018-06-23T08:14:41.485Z,63.85
2018-06-23T08:17:10.871Z,62.79
2018-06-23T08:19:41.367Z,65.24
2018-06-23T08:22:10.945Z,64.59
2018-06-23T08:24:41.630Z,63.75
2018-06-23T08:27:11.047Z,67.18
2018-06-23T08:29:40.439Z,65.37
2018-06-23T08:32:09.798Z,62.28
2018-06-23T08:34:39.151Z,60.05
2018-06-23T08:37:08.630Z,57.99
2018-06-23T08:39:38.276Z,58.43
2018-06-23T08:42:07.868Z,58.23
2018-06-23T08:44:37.775Z,60.33
2018-06-23T08:47:07.216Z,59.45
2018-06-23T08:49:36.613Z,60.38
2018-06-23T08:52:06.193Z,60.10
2018-06-23T08:54:35.718Z,59.44
2018-06-23T08:57:05.239Z,61.06
2018-06-23T08:59:34.551Z,59.29
2018-06-23T09:02:03.897Z,62.77
2018-06-23T09:04:33.422Z,61.81
2018-06-23T09:07:02.953Z,62.14
2018-06-23T09:09:32.665Z,57.01
2018-06-23T09:12:01.941Z,58.97
2018-06-23T09:14:31.362Z,58.06
2018-06-23T09:17:00.643Z,57.25
2018-06-23T09:19:30.093Z,57.94
2018-06-23T09:22:00.396Z,57.59
2018-06-23T09:24:30.536Z,58.78
2018-06-23T09:26:59.898Z,59.10
2018-06-23T09:29:29.307Z,56.56
2018-06-23T09:31:58.934Z,58.53
2018-06-23T09:34:28.585Z,56.70
2018-06-23T09:36:58.156Z,54.62
2018-06-23T09:39:27.715Z,52.58
2018-06-23T09:41:57.331Z,51.96
2018-06-23T09:44:27.042Z,52.69
2018-06-23T09:46:56.506Z,51.96
2018-06-23T09:49:25.814Z,51.21
2018-06-23T09:51:55.258Z,50.50
2018-06-23T09:54:24.564Z,51.53
2018-06-23T09:56:53.982Z,51.02
2018-06-23T09:59:23.364Z,45.60
2018-06-23T10:01:53.044Z,49.59
2018-06-23T10:04:22.436Z,47.78
2018-06-23T10:06:51.724Z,49.42
2018-06-23T10:09:21.053Z,47.75
2018-06-23T10:11:51.312Z,47.70
2018-06-23T10:14:20.768Z,49.17
2018-06-23T10:16:50.164Z,49.65
2018-06-23T10:19:19.442Z,45.90
2018-06-23T10:21:48.967Z,48.32
2018-06-23T10:24:19.263Z,43.85
2018-06-23T10:26:49.867Z,45.22
2018-06-23T10:29:19.899Z,47.12
2018-06-23T10:31:50.297Z,45.24
2018-06-23T10:34:19.875Z,43.47
2018-06-23T10:36:49.535Z,45.26
2018-06-23T10:39:19.348Z,47.75
2018-06-23T10:41:49.019Z,45.13
2018-06-23T10:44:18.315Z,46.40
2018-06-23T10:46:47.711Z,47.02
2018-06-23T10:49:17.133Z,43.91
2018-06-23T10:51:46.385Z,41.96
2018-06-23T10:54:16.171Z,42.49
2018-06-23T10:56:45.479Z,42.38
2018-06-23T10:59:14.912Z,46.02
2018-06-23T11:01:44.429Z,44.10
2018-06-23T11:04:13.836Z,46.22
2018-06-23T11:06:43.185Z,47.55
2018-06-23T11:09:15.795Z,45.03
2018-06-23T11:11:45.230Z,45.16
2018-06-23T11:14:14.928Z,46.18
2018-06-23T11:16:44.505Z,45.85
2018-06-23T11:19:13.803Z,45.26
2018-06-23T11:21:43.134Z,46.01
2018-06-23T11:24:12.561Z,43.39
2018-06-23T11:26:43.464Z,43.51
2018-06-23T11:29:12.724Z,46.10
2018-06-23T11:31:42.035Z,44.16
2018-06-23T11:34:11.630Z,44.97
2018-06-23T11:36:41.166Z,45.32
2018-06-23T11:39:11.608Z,46.36
2018-06-23T11:41:41.186Z,46.78
2018-06-23T11:44:10.935Z,45.99
2018-06-23T11:46:40.320Z,47.43
2018-06-23T11:49:09.714Z,48.26
2018-06-23T11:51:40.144Z,48.50
2018-06-23T11:54:10.232Z,47.40
2018-06-23T11:56:41.029Z,48.78
2018-06-23T11:59:10.542Z,45.90
2018-06-23T12:01:39.898Z,46.52
2018-06-23T12:04:10.037Z,40.07
2018-06-23T12:06:40.462Z,42.83
2018-06-23T12:09:09.887Z,43.36
2018-06-23T12:11:40.188Z,42.66
2018-06-23T12:14:10.196Z,42.88
2018-06-23T12:16:40.709Z,41.57
2018-06-23T12:19:10.196Z,42.59
2018-06-23T12:21:39.930Z,40.64
2018-06-23T12:24:09.520Z,42.46
2018-06-23T12:26:40.069Z,44.20
2018-06-23T12:29:09.816Z,42.81
2018-06-23T12:31:39.303Z,43.15
2018-06-23T12:34:09.161Z,41.57
2018-06-23T12:36:38.682Z,41.50
2018-06-23T12:39:09.874Z,44.35
2018-06-23T12:41:39.601Z,42.59
2018-06-23T12:44:09.505Z,43.85
2018-06-23T12:46:39.398Z,43.82
2018-06-23T12:49:08.888Z,44.43
2018-06-23T12:51:38.351Z,40.77
2018-06-23T12:54:07.686Z,43.62
2018-06-23T12:56:37.026Z,43.41
2018-06-23T12:59:06.368Z,45.46
2018-06-23T13:01:35.614Z,43.62
2018-06-23T13:04:05.073Z,46.23
2018-06-23T13:06:35.079Z,42.31
2018-06-23T13:09:06.384Z,41.59
2018-06-23T13:11:35.719Z,41.60
2018-06-23T13:14:05.180Z,41.61
2018-06-23T13:16:34.853Z,41.47
2018-06-23T13:19:04.094Z,42.00
2018-06-23T13:21:33.622Z,41.41
2018-06-23T13:24:03.001Z,43.66
2018-06-23T13:26:32.494Z,42.53
2018-06-23T13:29:02.722Z,43.55
2018-06-23T13:31:34.050Z,44.45
2018-06-23T13:34:04.281Z,41.25
2018-06-23T13:36:34.371Z,43.48
2018-06-23T13:39:05.114Z,39.47
2018-06-23T13:41:34.560Z,43.75
2018-06-23T13:44:04.493Z,43.61
2018-06-23T13:46:34.418Z,44.50
2018-06-23T13:49:03.807Z,40.40
2018-06-23T13:51:33.329Z,45.84
2018-06-23T13:54:03.133Z,43.69
2018-06-23T13:56:32.495Z,41.79
2018-06-23T13:59:02.319Z,41.53
2018-06-23T14:01:33.617Z,42.86
2018-06-23T14:04:03.003Z,45.42
2018-06-23T14:06:33.215Z,43.26
2018-06-23T14:09:02.653Z,43.08
2018-06-23T14:11:32.014Z,45.92
2018-06-23T14:14:01.717Z,41.08
2018-06-23T14:16:31.330Z,42.30
2018-06-23T14:19:00.737Z,44.17
2018-06-23T14:21:31.402Z,42.44
2018-06-23T14:24:01.056Z,43.52
2018-06-23T14:26:31.282Z,42.31
2018-06-23T14:29:01.211Z,43.58
2018-06-23T14:31:30.823Z,43.21
2018-06-23T14:34:00.178Z,43.83
2018-06-23T14:36:30.475Z,45.36
2018-06-23T14:38:59.798Z,43.81
2018-06-23T14:41:28.944Z,45.52
2018-06-23T14:43:59.204Z,44.34
2018-06-23T14:46:29.261Z,43.13
2018-06-23T14:48:58.764Z,42.00
2018-06-23T14:51:28.130Z,42.53
2018-06-23T14:53:57.560Z,41.98
2018-06-23T14:56:26.937Z,42.53
2018-06-23T14:58:56.249Z,42.76
2018-06-23T15:01:26.090Z,43.46
2018-06-23T15:03:56.532Z,41.58
2018-06-23T15:06:26.003Z,42.98
2018-06-23T15:09:06.107Z,47.38
2018-06-23T15:11:46.337Z,47.91
2018-06-23T15:14:15.819Z,42.47
2018-06-23T15:16:45.278Z,40.86
2018-06-23T15:19:15.656Z,42.13
2018-06-23T15:21:45.307Z,43.44
2018-06-23T15:24:14.901Z,45.41
2018-06-23T15:26:44.315Z,48.29
2018-06-23T15:29:15.356Z,47.43
2018-06-23T15:31:44.707Z,42.12
2018-06-23T15:34:14.057Z,43.46
2018-06-23T15:36:43.525Z,42.56
2018-06-23T15:39:13.675Z,43.66
2018-06-23T15:41:43.218Z,43.97
2018-06-23T15:44:12.655Z,43.57
2018-06-23T15:46:42.853Z,44.58
2018-06-23T15:49:12.218Z,45.58
2018-06-23T15:51:41.668Z,43.78
2018-06-23T15:54:10.970Z,44.03
2018-06-23T15:56:40.463Z,44.82
2018-06-23T15:59:09.905Z,48.35
2018-06-23T16:01:39.423Z,46.21
2018-06-23T16:04:08.800Z,45.62
2018-06-23T16:06:38.216Z,44.87
2018-06-23T16:09:10.220Z,46.02
2018-06-23T16:11:39.636Z,45.84
2018-06-23T16:14:09.095Z,45.58
2018-06-23T16:16:38.637Z,44.59
2018-06-23T16:19:08.536Z,43.72
2018-06-23T16:21:37.956Z,44.91
2018-06-23T16:24:07.170Z,45.50
2018-06-23T16:26:37.683Z,44.16
2018-06-23T16:29:07.140Z,43.84
2018-06-23T16:31:36.479Z,45.22
2018-06-23T16:34:06.122Z,45.78
2018-06-23T16:36:35.433Z,45.21
2018-06-23T16:39:07.220Z,47.17
2018-06-23T16:41:37.158Z,45.89
2018-06-23T16:44:06.959Z,47.54
2018-06-23T16:46:36.741Z,50.27
2018-06-23T16:49:06.241Z,55.14
2018-06-23T16:51:35.657Z,54.80
2018-06-23T16:54:05.257Z,56.51
2018-06-23T16:56:34.821Z,56.28
2018-06-23T16:59:04.239Z,58.29
2018-06-23T17:01:34.276Z,58.67
2018-06-23T17:04:04.523Z,58.64
2018-06-23T17:06:33.856Z,59.29
2018-06-23T17:09:04.477Z,58.69
2018-06-23T17:11:34.265Z,59.98
2018-06-23T17:14:04.055Z,60.73
2018-06-23T17:16:33.794Z,61.78
2018-06-23T17:19:04.128Z,61.26
2018-06-23T17:21:33.727Z,59.59
2018-06-23T17:24:03.288Z,58.55
2018-06-23T17:26:32.819Z,61.19
2018-06-23T17:29:02.433Z,60.90
2018-06-23T17:31:31.801Z,60.93
2018-06-23T17:34:01.675Z,61.48
2018-06-23T17:36:31.185Z,60.88
2018-06-23T17:39:00.920Z,61.14
2018-06-23T17:41:31.506Z,63.84
2018-06-23T17:44:00.892Z,62.26
2018-06-23T17:46:31.207Z,61.54
2018-06-23T17:49:00.491Z,61.06
2018-06-23T17:51:29.854Z,61.91
2018-06-23T17:53:59.336Z,64.14
2018-06-23T17:56:29.076Z,64.00
2018-06-23T17:58:58.418Z,66.05
2018-06-23T18:01:27.956Z,66.18
2018-06-23T18:03:58.219Z,65.69
2018-06-23T18:06:28.039Z,67.63
2018-06-23T18:08:57.414Z,67.68
2018-06-23T18:11:27.103Z,66.48
2018-06-23T18:13:56.857Z,68.63
2018-06-23T18:16:26.292Z,68.29
2018-06-23T18:18:56.804Z,69.21
2018-06-23T18:21:26.617Z,69.36
2018-06-23T18:23:56.501Z,71.11
2018-06-23T18:26:26.333Z,71.78
2018-06-23T18:28:56.093Z,74.04
2018-06-23T18:31:26.902Z,72.83
2018-06-23T18:33:56.946Z,71.47
2018-06-23T18:36:27.266Z,71.40
2018-06-23T18:38:57.294Z,73.39
2018-06-23T18:41:27.697Z,73.29
2018-06-23T18:43:57.105Z,73.94
2018-06-23T18:46:26.534Z,75.02
2018-06-23T18:48:55.972Z,75.30
2018-06-23T18:51:25.533Z,75.68
2018-06-23T18:53:55.012Z,76.27
2018-06-23T18:56:24.928Z,76.78
2018-06-23T18:58:55.223Z,76.86
2018-06-23T19:01:26.925Z,77.26
2018-06-23T19:03:56.487Z,77.37
2018-06-23T19:06:25.785Z,77.40
2018-06-23T19:08:55.220Z,79.41
2018-06-23T19:11:24.644Z,78.69
2018-06-23T19:13:54.474Z,77.12
2018-06-23T19:16:25.469Z,77.78
2018-06-23T19:18:54.920Z,78.28
2018-06-23T19:21:24.462Z,79.20
2018-06-23T19:23:53.913Z,80.59
2018-06-23T19:26:24.372Z,79.82
2018-06-23T19:28:53.780Z,78.53
2018-06-23T19:31:23.249Z,77.44
2018-06-23T19:33:52.851Z,78.72
2018-06-23T19:36:22.147Z,79.46
2018-06-23T19:38:51.557Z,80.43
2018-06-23T19:41:27.104Z,81.48
2018-06-23T19:43:56.475Z,80.31
2018-06-23T19:46:25.883Z,80.42
2018-06-23T19:48:55.439Z,82.32
2018-06-23T19:51:24.801Z,82.26
2018-06-23T19:53:55.498Z,81.09
2018-06-23T19:56:24.953Z,82.41
2018-06-23T19:58:55.564Z,82.20
2018-06-23T20:01:24.898Z,83.20
2018-06-23T20:03:54.330Z,82.14
2018-06-23T20:06:23.845Z,81.71
2018-06-23T20:08:53.101Z,81.64
2018-06-23T20:11:22.390Z,82.53
2018-06-23T20:13:52.804Z,81.56
2018-06-23T20:16:22.205Z,81.48
2018-06-23T20:18:51.534Z,81.98
2018-06-23T20:21:20.827Z,81.15
2018-06-23T20:23:50.127Z,82.04
2018-06-23T20:26:20.519Z,81.70
2018-06-23T20:28:50.146Z,81.62
2018-06-23T20:31:19.599Z,82.13
2018-06-23T20:33:49.168Z,81.67
2018-06-23T20:36:19.192Z,82.36
2018-06-23T20:38:48.551Z,82.72
2018-06-23T20:41:18.210Z,83.27
2018-06-23T20:43:47.545Z,82.57
2018-06-23T20:46:16.887Z,82.84
2018-06-23T20:48:46.811Z,83.16
2018-06-23T20:51:16.225Z,83.47
2018-06-23T20:53:45.559Z,83.30
2018-06-23T20:56:14.967Z,83.78
2018-06-23T20:58:44.514Z,84.74
2018-06-23T21:01:14.049Z,84.21
2018-06-23T21:03:44.564Z,84.22
2018-06-23T21:06:14.069Z,84.43
2018-06-23T21:08:43.405Z,83.92
2018-06-23T21:11:12.718Z,84.08
2018-06-23T21:13:42.141Z,82.48
2018-06-23T21:16:11.421Z,83.16
2018-06-23T21:18:40.877Z,83.38
2018-06-23T21:21:10.321Z,83.10
2018-06-23T21:23:39.504Z,84.44
2018-06-23T21:26:09.529Z,85.16
2018-06-23T21:28:38.801Z,85.17
2018-06-23T21:31:08.226Z,83.64
2018-06-23T21:33:37.536Z,83.76
2018-06-23T21:36:07.064Z,83.08
2018-06-23T21:38:36.344Z,82.28
2018-06-23T21:41:05.671Z,82.21
2018-06-23T21:43:35.047Z,83.02
2018-06-23T21:46:05.514Z,83.12
2018-06-23T21:48:35.052Z,83.16
2018-06-23T21:51:04.605Z,83.80
2018-06-23T21:53:34.790Z,84.62
2018-06-23T21:56:04.552Z,84.30
2018-06-23T21:58:34.306Z,84.48
2018-06-23T22:01:04.211Z,85.36
2018-06-23T22:03:33.925Z,84.65
2018-06-23T22:06:03.440Z,84.96
2018-06-23T22:08:32.848Z,85.06
2018-06-23T22:11:03.239Z,84.84
2018-06-23T22:13:32.744Z,84.64
2018-06-23T22:16:02.173Z,85.62
2018-06-23T22:18:31.758Z,86.05
2018-06-23T22:21:01.320Z,86.41
2018-06-23T22:23:30.823Z,86.93
2018-06-23T22:26:00.367Z,87.42
2018-06-23T22:28:30.155Z,86.79
2018-06-23T22:30:59.528Z,86.26
2018-06-23T22:33:29.023Z,86.37
2018-06-23T22:35:58.463Z,85.75
2018-06-23T22:38:28.181Z,86.00
2018-06-23T22:40:57.616Z,86.08
2018-06-23T22:43:27.228Z,87.38
2018-06-23T22:45:56.666Z,88.79
2018-06-23T22:48:27.254Z,87.94
2018-06-23T22:50:56.733Z,87.92
2018-06-23T22:53:26.036Z,88.12
2018-06-23T22:55:55.381Z,87.21
2018-06-23T22:58:24.784Z,86.71
2018-06-23T23:00:54.288Z,87.51
2018-06-23T23:03:24.618Z,86.92
2018-06-23T23:05:54.110Z,87.45
2018-06-23T23:08:23.618Z,87.72
2018-06-23T23:10:53.009Z,88.01
2018-06-23T23:13:22.519Z,88.12
2018-06-23T23:15:52.006Z,87.26
2018-06-23T23:18:21.847Z,87.24
2018-06-23T23:20:51.444Z,87.87
2018-06-23T23:23:20.844Z,87.81
2018-06-23T23:25:50.157Z,86.92
2018-06-23T23:28:19.653Z,87.70
2018-06-23T23:30:49.187Z,87.62
2018-06-23T23:33:18.700Z,87.91
2018-06-23T23:35:48.376Z,88.66
2018-06-23T23:38:17.983Z,87.32
2018-06-23T23:40:47.508Z,88.45
2018-06-23T23:43:17.782Z,89.31
2018-06-23T23:45:47.085Z,89.02
2018-06-23T23:48:16.545Z,88.66
2018-06-23T23:50:46.762Z,88.35
2018-06-23T23:53:17.059Z,88.30
2018-06-23T23:55:46.317Z,88.53
2018-06-23T23:58:15.705Z,88.58
